sensor_id;sensor_type;location;lat;lon;timestamp;P1;durP1;ratioP1;P2;durP2;ratioP2
5871;SDS011;2962;51.312;7.378;2024-03-06T00:02:00;83.07;;;32.53;;
5871;SDS011;2962;51.312;7.378;2024-03-06T00:04:25;76.17;;;31.23;;
5871;SDS011;2962;51.312;7.378;2024-03-06T00:06:51;80.27;;;32.57;;
5871;SDS011;2962;51.312;7.378;2024-03-06T00:09:17;79.10;;;31.20;;
5871;SDS011;2962;51.312;7.378;2024-03-06T00:11:43;86.35;;;32.17;;
5871;SDS011;2962;51.312;7.378;2024-03-06T00:14:09;81.93;;;32.63;;
5871;SDS011;2962;51.312;7.378;2024-03-06T00:16:37;78.53;;;31.92;;
5871;SDS011;2962;51.312;7.378;2024-03-06T00:19:03;87.33;;;31.53;;
5871;SDS011;2962;51.312;7.378;2024-03-06T00:21:28;79.70;;;32.07;;
5871;SDS011;2962;51.312;7.378;2024-03-06T00:23:54;89.57;;;33.77;;
5871;SDS011;2962;51.312;7.378;2024-03-06T00:26:20;82.90;;;32.25;;
5871;SDS011;2962;51.312;7.378;2024-03-06T00:28:46;77.87;;;29.20;;
5871;SDS011;2962;51.312;7.378;2024-03-06T00:31:12;81.53;;;30.20;;
5871;SDS011;2962;51.312;7.378;2024-03-06T00:33:37;75.47;;;29.80;;
5871;SDS011;2962;51.312;7.378;2024-03-06T00:36:03;79.43;;;30.63;;
5871;SDS011;2962;51.312;7.378;2024-03-06T00:38:28;78.30;;;30.93;;
5871;SDS011;2962;51.312;7.378;2024-03-06T00:40:54;86.73;;;29.47;;
5871;SDS011;2962;51.312;7.378;2024-03-06T00:43:19;75.37;;;30.47;;
5871;SDS011;2962;51.312;7.378;2024-03-06T00:45:45;86.13;;;31.00;;
5871;SDS011;2962;51.312;7.378;2024-03-06T00:48:10;81.10;;;30.80;;
5871;SDS011;2962;51.312;7.378;2024-03-06T00:50:36;80.27;;;29.60;;
5871;SDS011;2962;51.312;7.378;2024-03-06T00:53:01;75.60;;;30.17;;
5871;SDS011;2962;51.312;7.378;2024-03-06T00:55:28;75.10;;;30.43;;
5871;SDS011;2962;51.312;7.378;2024-03-06T00:57:53;79.33;;;30.63;;
5871;SDS011;2962;51.312;7.378;2024-03-06T01:00:19;81.33;;;29.97;;
5871;SDS011;2962;51.312;7.378;2024-03-06T01:02:44;83.23;;;30.63;;
5871;SDS011;2962;51.312;7.378;2024-03-06T01:05:10;73.50;;;29.97;;
5871;SDS011;2962;51.312;7.378;2024-03-06T01:07:37;80.47;;;31.00;;
5871;SDS011;2962;51.312;7.378;2024-03-06T01:10:03;77.93;;;31.43;;
5871;SDS011;2962;51.312;7.378;2024-03-06T01:12:31;75.27;;;31.30;;
5871;SDS011;2962;51.312;7.378;2024-03-06T01:14:56;81.63;;;29.10;;
5871;SDS011;2962;51.312;7.378;2024-03-06T01:17:22;76.97;;;30.20;;
5871;SDS011;2962;51.312;7.378;2024-03-06T01:19:47;70.53;;;29.00;;
5871;SDS011;2962;51.312;7.378;2024-03-06T01:22:12;74.07;;;29.33;;
5871;SDS011;2962;51.312;7.378;2024-03-06T01:24:38;60.23;;;27.10;;
5871;SDS011;2962;51.312;7.378;2024-03-06T01:27:03;70.50;;;29.40;;
5871;SDS011;2962;51.312;7.378;2024-03-06T01:29:29;75.33;;;30.53;;
5871;SDS011;2962;51.312;7.378;2024-03-06T01:31:54;76.97;;;30.37;;
5871;SDS011;2962;51.312;7.378;2024-03-06T01:34:19;69.23;;;28.63;;
5871;SDS011;2962;51.312;7.378;2024-03-06T01:36:45;76.07;;;31.43;;
5871;SDS011;2962;51.312;7.378;2024-03-06T01:39:10;69.63;;;27.87;;
5871;SDS011;2962;51.312;7.378;2024-03-06T01:41:36;66.03;;;28.37;;
5871;SDS011;2962;51.312;7.378;2024-03-06T01:44:01;58.07;;;25.50;;
5871;SDS011;2962;51.312;7.378;2024-03-06T01:46:26;61.80;;;26.93;;
5871;SDS011;2962;51.312;7.378;2024-03-06T01:48:52;64.40;;;26.33;;
5871;SDS011;2962;51.312;7.378;2024-03-06T01:51:17;72.40;;;29.43;;
5871;SDS011;2962;51.312;7.378;2024-03-06T01:53:43;67.87;;;29.63;;
5871;SDS011;2962;51.312;7.378;2024-03-06T01:56:09;71.80;;;29.70;;
5871;SDS011;2962;51.312;7.378;2024-03-06T01:58:36;75.03;;;29.80;;
5871;SDS011;2962;51.312;7.378;2024-03-06T02:01:04;74.53;;;30.83;;
5871;SDS011;2962;51.312;7.378;2024-03-06T02:03:31;62.00;;;28.13;;
5871;SDS011;2962;51.312;7.378;2024-03-06T02:05:57;64.70;;;28.73;;
5871;SDS011;2962;51.312;7.378;2024-03-06T02:08:23;71.27;;;30.33;;
5871;SDS011;2962;51.312;7.378;2024-03-06T02:10:49;69.90;;;30.43;;
5871;SDS011;2962;51.312;7.378;2024-03-06T02:13:14;75.83;;;30.87;;
5871;SDS011;2962;51.312;7.378;2024-03-06T02:15:40;79.83;;;31.53;;
5871;SDS011;2962;51.312;7.378;2024-03-06T02:18:05;83.97;;;32.43;;
5871;SDS011;2962;51.312;7.378;2024-03-06T02:20:31;71.70;;;31.10;;
5871;SDS011;2962;51.312;7.378;2024-03-06T02:22:56;76.20;;;31.70;;
5871;SDS011;2962;51.312;7.378;2024-03-06T02:25:22;74.93;;;30.50;;
5871;SDS011;2962;51.312;7.378;2024-03-06T02:27:47;75.50;;;29.43;;
5871;SDS011;2962;51.312;7.378;2024-03-06T02:30:19;73.60;;;31.00;;
5871;SDS011;2962;51.312;7.378;2024-03-06T02:32:45;81.57;;;32.30;;
5871;SDS011;2962;51.312;7.378;2024-03-06T02:35:10;78.20;;;30.70;;
5871;SDS011;2962;51.312;7.378;2024-03-06T02:37:36;82.93;;;32.10;;
5871;SDS011;2962;51.312;7.378;2024-03-06T02:40:01;89.07;;;31.60;;
5871;SDS011;2962;51.312;7.378;2024-03-06T02:42:28;81.13;;;29.80;;
5871;SDS011;2962;51.312;7.378;2024-03-06T02:44:53;82.20;;;31.20;;
5871;SDS011;2962;51.312;7.378;2024-03-06T02:47:19;70.07;;;26.83;;
5871;SDS011;2962;51.312;7.378;2024-03-06T02:49:44;87.20;;;30.30;;
5871;SDS011;2962;51.312;7.378;2024-03-06T02:52:10;75.77;;;29.33;;
5871;SDS011;2962;51.312;7.378;2024-03-06T02:54:35;70.77;;;30.00;;
5871;SDS011;2962;51.312;7.378;2024-03-06T02:57:00;78.57;;;30.10;;
5871;SDS011;2962;51.312;7.378;2024-03-06T02:59:26;76.00;;;28.93;;
5871;SDS011;2962;51.312;7.378;2024-03-06T03:01:51;77.83;;;30.07;;
5871;SDS011;2962;51.312;7.378;2024-03-06T03:04:17;73.20;;;28.50;;
5871;SDS011;2962;51.312;7.378;2024-03-06T03:06:42;69.37;;;28.67;;
5871;SDS011;2962;51.312;7.378;2024-03-06T03:09:07;79.53;;;29.53;;
5871;SDS011;2962;51.312;7.378;2024-03-06T03:11:36;71.70;;;29.13;;
5871;SDS011;2962;51.312;7.378;2024-03-06T03:14:01;73.73;;;30.10;;
5871;SDS011;2962;51.312;7.378;2024-03-06T03:16:27;64.50;;;27.73;;
5871;SDS011;2962;51.312;7.378;2024-03-06T03:18:52;41.80;;;20.60;;
5871;SDS011;2962;51.312;7.378;2024-03-06T03:21:17;58.53;;;28.10;;
5871;SDS011;2962;51.312;7.378;2024-03-06T03:23:43;46.33;;;23.43;;
5871;SDS011;2962;51.312;7.378;2024-03-06T03:26:08;50.53;;;25.10;;
5871;SDS011;2962;51.312;7.378;2024-03-06T03:28:39;37.70;;;22.17;;
5871;SDS011;2962;51.312;7.378;2024-03-06T03:31:06;38.10;;;20.40;;
5871;SDS011;2962;51.312;7.378;2024-03-06T03:33:33;39.50;;;21.50;;
5871;SDS011;2962;51.312;7.378;2024-03-06T03:35:59;45.50;;;21.80;;
5871;SDS011;2962;51.312;7.378;2024-03-06T03:38:25;35.60;;;19.07;;
5871;SDS011;2962;51.312;7.378;2024-03-06T03:40:50;44.33;;;22.17;;
5871;SDS011;2962;51.312;7.378;2024-03-06T03:43:15;40.10;;;21.83;;
5871;SDS011;2962;51.312;7.378;2024-03-06T03:45:41;37.83;;;20.80;;
5871;SDS011;2962;51.312;7.378;2024-03-06T03:48:06;30.87;;;20.27;;
5871;SDS011;2962;51.312;7.378;2024-03-06T03:50:31;33.57;;;19.80;;
5871;SDS011;2962;51.312;7.378;2024-03-06T03:52:57;29.97;;;18.37;;
5871;SDS011;2962;51.312;7.378;2024-03-06T03:55:25;28.97;;;16.80;;
5871;SDS011;2962;51.312;7.378;2024-03-06T03:57:51;34.10;;;19.50;;
5871;SDS011;2962;51.312;7.378;2024-03-06T04:00:17;33.27;;;18.20;;
5871;SDS011;2962;51.312;7.378;2024-03-06T04:02:43;33.23;;;19.70;;
5871;SDS011;2962;51.312;7.378;2024-03-06T04:05:08;27.70;;;17.60;;
5871;SDS011;2962;51.312;7.378;2024-03-06T04:07:34;26.47;;;17.53;;
5871;SDS011;2962;51.312;7.378;2024-03-06T04:10:00;23.47;;;14.43;;
5871;SDS011;2962;51.312;7.378;2024-03-06T04:12:26;26.10;;;13.87;;
5871;SDS011;2962;51.312;7.378;2024-03-06T04:14:51;25.57;;;14.87;;
5871;SDS011;2962;51.312;7.378;2024-03-06T04:17:17;29.43;;;15.33;;
5871;SDS011;2962;51.312;7.378;2024-03-06T04:19:42;25.10;;;15.60;;
5871;SDS011;2962;51.312;7.378;2024-03-06T04:22:07;25.07;;;15.60;;
5871;SDS011;2962;51.312;7.378;2024-03-06T04:24:33;40.63;;;21.30;;
5871;SDS011;2962;51.312;7.378;2024-03-06T04:26:58;39.57;;;21.37;;
5871;SDS011;2962;51.312;7.378;2024-03-06T04:29:23;33.23;;;19.60;;
5871;SDS011;2962;51.312;7.378;2024-03-06T04:31:48;42.27;;;21.30;;
5871;SDS011;2962;51.312;7.378;2024-03-06T04:34:14;45.70;;;22.80;;
5871;SDS011;2962;51.312;7.378;2024-03-06T04:36:39;52.53;;;23.70;;
5871;SDS011;2962;51.312;7.378;2024-03-06T04:39:04;54.63;;;24.60;;
5871;SDS011;2962;51.312;7.378;2024-03-06T04:41:32;49.50;;;24.60;;
5871;SDS011;2962;51.312;7.378;2024-03-06T04:43:58;54.13;;;25.43;;
5871;SDS011;2962;51.312;7.378;2024-03-06T04:46:25;55.97;;;25.17;;
5871;SDS011;2962;51.312;7.378;2024-03-06T04:48:50;54.27;;;24.80;;
5871;SDS011;2962;51.312;7.378;2024-03-06T04:51:16;61.83;;;25.57;;
5871;SDS011;2962;51.312;7.378;2024-03-06T04:53:41;53.43;;;25.33;;
5871;SDS011;2962;51.312;7.378;2024-03-06T04:56:07;50.30;;;23.87;;
5871;SDS011;2962;51.312;7.378;2024-03-06T04:58:32;60.57;;;25.73;;
5871;SDS011;2962;51.312;7.378;2024-03-06T05:00:58;53.17;;;25.93;;
5871;SDS011;2962;51.312;7.378;2024-03-06T05:03:23;59.47;;;24.97;;
5871;SDS011;2962;51.312;7.378;2024-03-06T05:05:48;56.83;;;25.90;;
5871;SDS011;2962;51.312;7.378;2024-03-06T05:08:14;60.53;;;25.40;;
5871;SDS011;2962;51.312;7.378;2024-03-06T05:10:39;56.87;;;25.80;;
5871;SDS011;2962;51.312;7.378;2024-03-06T05:13:05;58.67;;;26.55;;
5871;SDS011;2962;51.312;7.378;2024-03-06T05:15:30;64.97;;;27.60;;
5871;SDS011;2962;51.312;7.378;2024-03-06T05:17:55;64.57;;;27.80;;
5871;SDS011;2962;51.312;7.378;2024-03-06T05:20:21;64.50;;;26.80;;
5871;SDS011;2962;51.312;7.378;2024-03-06T05:22:46;72.60;;;28.10;;
5871;SDS011;2962;51.312;7.378;2024-03-06T05:25:11;68.03;;;28.50;;
5871;SDS011;2962;51.312;7.378;2024-03-06T05:27:37;80.80;;;29.80;;
5871;SDS011;2962;51.312;7.378;2024-03-06T05:30:02;70.40;;;29.97;;
5871;SDS011;2962;51.312;7.378;2024-03-06T05:32:30;66.60;;;28.45;;
5871;SDS011;2962;51.312;7.378;2024-03-06T05:34:55;71.63;;;29.97;;
5871;SDS011;2962;51.312;7.378;2024-03-06T05:37:22;74.90;;;30.25;;
5871;SDS011;2962;51.312;7.378;2024-03-06T05:39:48;75.17;;;30.43;;
5871;SDS011;2962;51.312;7.378;2024-03-06T05:42:13;142.63;;;32.27;;
5871;SDS011;2962;51.312;7.378;2024-03-06T05:44:38;195.33;;;34.40;;
5871;SDS011;2962;51.312;7.378;2024-03-06T05:47:03;575.90;;;48.57;;
5871;SDS011;2962;51.312;7.378;2024-03-06T05:49:29;409.87;;;39.87;;
5871;SDS011;2962;51.312;7.378;2024-03-06T05:51:55;453.70;;;39.50;;
5871;SDS011;2962;51.312;7.378;2024-03-06T05:54:21;706.23;;;43.87;;
5871;SDS011;2962;51.312;7.378;2024-03-06T05:56:49;515.80;;;38.77;;
5871;SDS011;2962;51.312;7.378;2024-03-06T05:59:16;574.00;;;37.88;;
5871;SDS011;2962;51.312;7.378;2024-03-06T06:01:42;500.47;;;33.13;;
5871;SDS011;2962;51.312;7.378;2024-03-06T06:04:11;560.13;;;42.17;;
5871;SDS011;2962;51.312;7.378;2024-03-06T06:06:38;461.33;;;37.33;;
5871;SDS011;2962;51.312;7.378;2024-03-06T06:09:04;704.47;;;50.77;;
5871;SDS011;2962;51.312;7.378;2024-03-06T06:11:30;723.00;;;44.27;;
5871;SDS011;2962;51.312;7.378;2024-03-06T06:13:56;393.60;;;31.80;;
5871;SDS011;2962;51.312;7.378;2024-03-06T06:16:21;54.53;;;22.10;;
5871;SDS011;2962;51.312;7.378;2024-03-06T06:18:46;48.50;;;21.33;;
5871;SDS011;2962;51.312;7.378;2024-03-06T06:21:12;247.23;;;27.60;;
5871;SDS011;2962;51.312;7.378;2024-03-06T06:23:37;212.87;;;25.77;;
5871;SDS011;2962;51.312;7.378;2024-03-06T06:26:02;94.20;;;20.40;;
5871;SDS011;2962;51.312;7.378;2024-03-06T06:28:28;47.97;;;19.43;;
5871;SDS011;2962;51.312;7.378;2024-03-06T06:30:53;58.47;;;23.07;;
5871;SDS011;2962;51.312;7.378;2024-03-06T06:33:19;65.57;;;24.43;;
5871;SDS011;2962;51.312;7.378;2024-03-06T06:35:45;75.70;;;25.90;;
5871;SDS011;2962;51.312;7.378;2024-03-06T06:38:11;65.20;;;25.20;;
5871;SDS011;2962;51.312;7.378;2024-03-06T06:40:36;71.20;;;28.73;;
5871;SDS011;2962;51.312;7.378;2024-03-06T06:43:01;66.43;;;27.07;;
5871;SDS011;2962;51.312;7.378;2024-03-06T06:45:26;64.30;;;25.57;;
5871;SDS011;2962;51.312;7.378;2024-03-06T06:47:52;70.27;;;27.47;;
5871;SDS011;2962;51.312;7.378;2024-03-06T06:50:18;76.72;;;28.33;;
5871;SDS011;2962;51.312;7.378;2024-03-06T06:52:46;75.50;;;28.25;;
5871;SDS011;2962;51.312;7.378;2024-03-06T06:55:12;78.20;;;27.00;;
5871;SDS011;2962;51.312;7.378;2024-03-06T06:57:37;77.97;;;28.33;;
5871;SDS011;2962;51.312;7.378;2024-03-06T07:00:03;77.83;;;27.63;;
5871;SDS011;2962;51.312;7.378;2024-03-06T07:02:39;73.13;;;25.30;;
5871;SDS011;2962;51.312;7.378;2024-03-06T07:05:05;64.27;;;25.87;;
5871;SDS011;2962;51.312;7.378;2024-03-06T07:07:31;65.30;;;25.80;;
5871;SDS011;2962;51.312;7.378;2024-03-06T07:09:57;69.07;;;27.23;;
5871;SDS011;2962;51.312;7.378;2024-03-06T07:12:23;68.53;;;27.37;;
5871;SDS011;2962;51.312;7.378;2024-03-06T07:14:48;61.10;;;24.90;;
5871;SDS011;2962;51.312;7.378;2024-03-06T07:17:14;67.50;;;26.70;;
5871;SDS011;2962;51.312;7.378;2024-03-06T07:19:39;70.83;;;25.30;;
5871;SDS011;2962;51.312;7.378;2024-03-06T07:22:04;76.07;;;27.60;;
5871;SDS011;2962;51.312;7.378;2024-03-06T07:24:30;62.87;;;25.30;;
5871;SDS011;2962;51.312;7.378;2024-03-06T07:26:55;62.23;;;26.77;;
5871;SDS011;2962;51.312;7.378;2024-03-06T07:29:20;62.83;;;25.93;;
5871;SDS011;2962;51.312;7.378;2024-03-06T07:31:46;54.77;;;26.40;;
5871;SDS011;2962;51.312;7.378;2024-03-06T07:34:12;57.13;;;25.73;;
5871;SDS011;2962;51.312;7.378;2024-03-06T07:36:38;59.63;;;25.87;;
5871;SDS011;2962;51.312;7.378;2024-03-06T07:39:03;64.20;;;26.30;;
5871;SDS011;2962;51.312;7.378;2024-03-06T07:41:29;65.40;;;27.53;;
5871;SDS011;2962;51.312;7.378;2024-03-06T07:43:56;50.30;;;24.60;;
5871;SDS011;2962;51.312;7.378;2024-03-06T07:46:21;60.97;;;24.90;;
5871;SDS011;2962;51.312;7.378;2024-03-06T07:48:46;55.30;;;25.70;;
5871;SDS011;2962;51.312;7.378;2024-03-06T07:51:12;46.97;;;23.23;;
5871;SDS011;2962;51.312;7.378;2024-03-06T07:53:37;50.57;;;23.73;;
5871;SDS011;2962;51.312;7.378;2024-03-06T07:56:03;46.20;;;23.63;;
5871;SDS011;2962;51.312;7.378;2024-03-06T07:58:29;43.30;;;22.13;;
5871;SDS011;2962;51.312;7.378;2024-03-06T08:00:54;46.20;;;24.27;;
5871;SDS011;2962;51.312;7.378;2024-03-06T08:03:24;42.60;;;22.00;;
5871;SDS011;2962;51.312;7.378;2024-03-06T08:05:52;39.00;;;21.93;;
5871;SDS011;2962;51.312;7.378;2024-03-06T08:08:18;29.33;;;17.67;;
5871;SDS011;2962;51.312;7.378;2024-03-06T08:10:43;28.87;;;17.70;;
5871;SDS011;2962;51.312;7.378;2024-03-06T08:13:09;38.13;;;19.77;;
5871;SDS011;2962;51.312;7.378;2024-03-06T08:15:35;36.20;;;20.87;;
5871;SDS011;2962;51.312;7.378;2024-03-06T08:18:00;43.20;;;23.20;;
5871;SDS011;2962;51.312;7.378;2024-03-06T08:20:25;38.37;;;22.50;;
5871;SDS011;2962;51.312;7.378;2024-03-06T08:22:52;41.13;;;22.00;;
5871;SDS011;2962;51.312;7.378;2024-03-06T08:25:17;41.47;;;22.17;;
5871;SDS011;2962;51.312;7.378;2024-03-06T08:27:43;33.73;;;20.33;;
5871;SDS011;2962;51.312;7.378;2024-03-06T08:30:08;35.30;;;20.30;;
5871;SDS011;2962;51.312;7.378;2024-03-06T08:32:34;36.83;;;19.77;;
5871;SDS011;2962;51.312;7.378;2024-03-06T08:35:02;34.60;;;20.93;;
5871;SDS011;2962;51.312;7.378;2024-03-06T08:37:27;29.77;;;19.37;;
5871;SDS011;2962;51.312;7.378;2024-03-06T08:39:53;28.83;;;19.13;;
5871;SDS011;2962;51.312;7.378;2024-03-06T08:42:18;31.33;;;19.20;;
5871;SDS011;2962;51.312;7.378;2024-03-06T08:44:44;23.47;;;17.20;;
5871;SDS011;2962;51.312;7.378;2024-03-06T08:47:09;22.97;;;16.17;;
5871;SDS011;2962;51.312;7.378;2024-03-06T08:49:35;26.90;;;17.40;;
5871;SDS011;2962;51.312;7.378;2024-03-06T08:52:00;24.07;;;16.50;;
5871;SDS011;2962;51.312;7.378;2024-03-06T08:54:25;28.40;;;17.77;;
5871;SDS011;2962;51.312;7.378;2024-03-06T08:56:50;23.90;;;16.50;;
5871;SDS011;2962;51.312;7.378;2024-03-06T08:59:18;22.23;;;15.97;;
5871;SDS011;2962;51.312;7.378;2024-03-06T09:01:44;31.90;;;17.40;;
5871;SDS011;2962;51.312;7.378;2024-03-06T09:04:09;19.10;;;15.07;;
5871;SDS011;2962;51.312;7.378;2024-03-06T09:06:34;21.23;;;14.70;;
5871;SDS011;2962;51.312;7.378;2024-03-06T09:08:59;20.50;;;14.50;;
5871;SDS011;2962;51.312;7.378;2024-03-06T09:11:25;21.70;;;15.57;;
5871;SDS011;2962;51.312;7.378;2024-03-06T09:13:50;19.73;;;15.40;;
5871;SDS011;2962;51.312;7.378;2024-03-06T09:16:15;18.30;;;14.77;;
5871;SDS011;2962;51.312;7.378;2024-03-06T09:18:43;20.60;;;16.37;;
5871;SDS011;2962;51.312;7.378;2024-03-06T09:21:08;20.30;;;14.70;;
5871;SDS011;2962;51.312;7.378;2024-03-06T09:23:33;20.33;;;14.70;;
5871;SDS011;2962;51.312;7.378;2024-03-06T09:25:59;17.90;;;14.90;;
5871;SDS011;2962;51.312;7.378;2024-03-06T09:28:24;19.77;;;16.47;;
5871;SDS011;2962;51.312;7.378;2024-03-06T09:30:49;18.83;;;14.40;;
5871;SDS011;2962;51.312;7.378;2024-03-06T09:33:16;22.17;;;16.63;;
5871;SDS011;2962;51.312;7.378;2024-03-06T09:35:41;19.30;;;14.63;;
5871;SDS011;2962;51.312;7.378;2024-03-06T09:38:10;16.17;;;14.10;;
5871;SDS011;2962;51.312;7.378;2024-03-06T09:40:38;20.30;;;14.10;;
5871;SDS011;2962;51.312;7.378;2024-03-06T09:43:05;20.00;;;13.90;;
5871;SDS011;2962;51.312;7.378;2024-03-06T09:45:31;19.67;;;13.43;;
5871;SDS011;2962;51.312;7.378;2024-03-06T09:47:57;14.73;;;12.43;;
5871;SDS011;2962;51.312;7.378;2024-03-06T09:50:23;16.33;;;12.97;;
5871;SDS011;2962;51.312;7.378;2024-03-06T09:52:50;13.20;;;11.80;;
5871;SDS011;2962;51.312;7.378;2024-03-06T09:55:17;16.30;;;11.80;;
5871;SDS011;2962;51.312;7.378;2024-03-06T09:57:43;15.83;;;11.67;;
5871;SDS011;2962;51.312;7.378;2024-03-06T10:00:08;13.50;;;12.17;;
5871;SDS011;2962;51.312;7.378;2024-03-06T10:02:50;17.17;;;11.47;;
5871;SDS011;2962;51.312;7.378;2024-03-06T10:05:22;17.17;;;11.70;;
5871;SDS011;2962;51.312;7.378;2024-03-06T10:07:49;14.03;;;11.60;;
5871;SDS011;2962;51.312;7.378;2024-03-06T10:10:16;15.13;;;11.87;;
5871;SDS011;2962;51.312;7.378;2024-03-06T10:12:42;11.97;;;10.77;;
5871;SDS011;2962;51.312;7.378;2024-03-06T10:15:09;12.73;;;10.57;;
5871;SDS011;2962;51.312;7.378;2024-03-06T10:17:37;11.03;;;10.00;;
5871;SDS011;2962;51.312;7.378;2024-03-06T10:20:16;13.33;;;11.20;;
5871;SDS011;2962;51.312;7.378;2024-03-06T10:22:44;11.30;;;9.90;;
5871;SDS011;2962;51.312;7.378;2024-03-06T10:25:10;11.87;;;10.77;;
5871;SDS011;2962;51.312;7.378;2024-03-06T10:27:36;11.30;;;10.10;;
5871;SDS011;2962;51.312;7.378;2024-03-06T10:30:02;10.57;;;9.53;;
5871;SDS011;2962;51.312;7.378;2024-03-06T10:32:27;13.03;;;11.07;;
5871;SDS011;2962;51.312;7.378;2024-03-06T10:34:55;12.50;;;10.40;;
5871;SDS011;2962;51.312;7.378;2024-03-06T10:37:20;10.40;;;9.50;;
5871;SDS011;2962;51.312;7.378;2024-03-06T10:39:47;11.37;;;10.20;;
5871;SDS011;2962;51.312;7.378;2024-03-06T10:42:19;14.90;;;9.47;;
5871;SDS011;2962;51.312;7.378;2024-03-06T10:44:51;14.57;;;10.60;;
5871;SDS011;2962;51.312;7.378;2024-03-06T10:47:20;11.30;;;10.20;;
5871;SDS011;2962;51.312;7.378;2024-03-06T10:49:46;14.37;;;10.40;;
5871;SDS011;2962;51.312;7.378;2024-03-06T10:52:12;11.17;;;9.37;;
5871;SDS011;2962;51.312;7.378;2024-03-06T10:54:41;13.50;;;10.40;;
5871;SDS011;2962;51.312;7.378;2024-03-06T10:57:10;11.70;;;9.27;;
5871;SDS011;2962;51.312;7.378;2024-03-06T10:59:37;12.60;;;9.40;;
5871;SDS011;2962;51.312;7.378;2024-03-06T11:02:02;13.03;;;10.17;;
5871;SDS011;2962;51.312;7.378;2024-03-06T11:04:29;11.83;;;9.33;;
5871;SDS011;2962;51.312;7.378;2024-03-06T11:06:59;10.20;;;8.63;;
5871;SDS011;2962;51.312;7.378;2024-03-06T11:09:25;9.77;;;8.87;;
5871;SDS011;2962;51.312;7.378;2024-03-06T11:11:51;9.53;;;8.60;;
5871;SDS011;2962;51.312;7.378;2024-03-06T11:14:18;9.03;;;8.20;;
5871;SDS011;2962;51.312;7.378;2024-03-06T11:17:05;13.30;;;9.97;;
5871;SDS011;2962;51.312;7.378;2024-03-06T11:28:19;9.10;;;8.30;;
5871;SDS011;2962;51.312;7.378;2024-03-06T11:30:46;8.37;;;7.47;;
5871;SDS011;2962;51.312;7.378;2024-03-06T11:33:35;8.47;;;7.60;;
5871;SDS011;2962;51.312;7.378;2024-03-06T11:36:12;8.73;;;7.97;;
5871;SDS011;2962;51.312;7.378;2024-03-06T11:38:52;8.60;;;7.90;;
5871;SDS011;2962;51.312;7.378;2024-03-06T11:41:24;10.67;;;9.17;;
5871;SDS011;2962;51.312;7.378;2024-03-06T11:43:51;10.60;;;9.13;;
5871;SDS011;2962;51.312;7.378;2024-03-06T11:46:18;20.60;;;11.27;;
5871;SDS011;2962;51.312;7.378;2024-03-06T11:48:51;12.87;;;10.90;;
5871;SDS011;2962;51.312;7.378;2024-03-06T11:51:18;11.63;;;10.50;;
5871;SDS011;2962;51.312;7.378;2024-03-06T11:53:43;11.00;;;9.90;;
5871;SDS011;2962;51.312;7.378;2024-03-06T11:56:09;10.43;;;9.33;;
5871;SDS011;2962;51.312;7.378;2024-03-06T11:58:35;16.77;;;11.57;;
5871;SDS011;2962;51.312;7.378;2024-03-06T12:01:00;13.20;;;11.23;;
5871;SDS011;2962;51.312;7.378;2024-03-06T12:03:26;15.00;;;11.37;;
5871;SDS011;2962;51.312;7.378;2024-03-06T12:05:52;13.90;;;10.50;;
5871;SDS011;2962;51.312;7.378;2024-03-06T12:08:18;13.67;;;9.90;;
5871;SDS011;2962;51.312;7.378;2024-03-06T12:10:45;11.90;;;9.83;;
5871;SDS011;2962;51.312;7.378;2024-03-06T12:13:11;12.53;;;9.27;;
5871;SDS011;2962;51.312;7.378;2024-03-06T12:15:36;12.03;;;10.20;;
5871;SDS011;2962;51.312;7.378;2024-03-06T12:18:02;13.60;;;10.47;;
5871;SDS011;2962;51.312;7.378;2024-03-06T12:20:27;11.07;;;9.87;;
5871;SDS011;2962;51.312;7.378;2024-03-06T12:22:53;11.43;;;9.63;;
5871;SDS011;2962;51.312;7.378;2024-03-06T12:25:22;10.20;;;9.10;;
5871;SDS011;2962;51.312;7.378;2024-03-06T12:27:49;8.60;;;7.57;;
5871;SDS011;2962;51.312;7.378;2024-03-06T12:30:19;7.10;;;6.50;;
5871;SDS011;2962;51.312;7.378;2024-03-06T12:33:06;8.30;;;7.50;;
5871;SDS011;2962;51.312;7.378;2024-03-06T12:35:31;8.30;;;7.67;;
5871;SDS011;2962;51.312;7.378;2024-03-06T12:37:57;8.23;;;7.57;;
5871;SDS011;2962;51.312;7.378;2024-03-06T12:40:23;6.80;;;5.90;;
5871;SDS011;2962;51.312;7.378;2024-03-06T12:42:49;6.40;;;5.90;;
5871;SDS011;2962;51.312;7.378;2024-03-06T12:45:18;8.20;;;7.03;;
5871;SDS011;2962;51.312;7.378;2024-03-06T12:47:44;7.43;;;6.67;;
5871;SDS011;2962;51.312;7.378;2024-03-06T12:50:10;10.47;;;7.90;;
5871;SDS011;2962;51.312;7.378;2024-03-06T12:52:37;11.80;;;8.57;;
5871;SDS011;2962;51.312;7.378;2024-03-06T12:55:03;10.93;;;8.03;;
5871;SDS011;2962;51.312;7.378;2024-03-06T12:57:31;9.13;;;7.57;;
5871;SDS011;2962;51.312;7.378;2024-03-06T12:59:57;9.37;;;7.80;;
5871;SDS011;2962;51.312;7.378;2024-03-06T13:02:23;9.30;;;7.87;;
5871;SDS011;2962;51.312;7.378;2024-03-06T13:04:48;9.33;;;8.43;;
5871;SDS011;2962;51.312;7.378;2024-03-06T13:07:14;15.07;;;11.27;;
5871;SDS011;2962;51.312;7.378;2024-03-06T13:09:39;16.83;;;12.13;;
5871;SDS011;2962;51.312;7.378;2024-03-06T13:12:05;17.87;;;13.00;;
5871;SDS011;2962;51.312;7.378;2024-03-06T13:14:31;17.60;;;14.17;;
5871;SDS011;2962;51.312;7.378;2024-03-06T13:16:57;20.03;;;14.60;;
5871;SDS011;2962;51.312;7.378;2024-03-06T13:19:23;21.00;;;15.03;;
5871;SDS011;2962;51.312;7.378;2024-03-06T13:21:48;24.17;;;15.57;;
5871;SDS011;2962;51.312;7.378;2024-03-06T13:24:13;20.53;;;14.07;;
5871;SDS011;2962;51.312;7.378;2024-03-06T13:26:39;20.50;;;14.20;;
5871;SDS011;2962;51.312;7.378;2024-03-06T13:29:05;18.83;;;14.33;;
5871;SDS011;2962;51.312;7.378;2024-03-06T13:31:31;19.13;;;15.00;;
5871;SDS011;2962;51.312;7.378;2024-03-06T13:33:58;21.60;;;15.33;;
5871;SDS011;2962;51.312;7.378;2024-03-06T13:36:26;18.07;;;14.67;;
5871;SDS011;2962;51.312;7.378;2024-03-06T13:38:51;18.27;;;13.50;;
5871;SDS011;2962;51.312;7.378;2024-03-06T13:41:17;17.50;;;13.73;;
5871;SDS011;2962;51.312;7.378;2024-03-06T13:43:42;17.70;;;14.70;;
5871;SDS011;2962;51.312;7.378;2024-03-06T13:46:08;14.37;;;12.87;;
5871;SDS011;2962;51.312;7.378;2024-03-06T13:48:33;15.70;;;13.53;;
5871;SDS011;2962;51.312;7.378;2024-03-06T13:50:59;18.43;;;14.63;;
5871;SDS011;2962;51.312;7.378;2024-03-06T13:53:24;16.87;;;13.90;;
5871;SDS011;2962;51.312;7.378;2024-03-06T13:55:49;18.40;;;14.00;;
5871;SDS011;2962;51.312;7.378;2024-03-06T13:58:15;16.23;;;14.13;;
5871;SDS011;2962;51.312;7.378;2024-03-06T14:00:40;13.20;;;11.77;;
5871;SDS011;2962;51.312;7.378;2024-03-06T14:03:05;14.30;;;12.80;;
5871;SDS011;2962;51.312;7.378;2024-03-06T14:05:31;13.40;;;12.13;;
5871;SDS011;2962;51.312;7.378;2024-03-06T14:07:56;13.53;;;12.23;;
5871;SDS011;2962;51.312;7.378;2024-03-06T14:10:21;15.83;;;13.40;;
5871;SDS011;2962;51.312;7.378;2024-03-06T14:12:49;14.27;;;12.90;;
5871;SDS011;2962;51.312;7.378;2024-03-06T14:15:18;14.20;;;12.70;;
5871;SDS011;2962;51.312;7.378;2024-03-06T14:17:44;16.10;;;14.40;;
5871;SDS011;2962;51.312;7.378;2024-03-06T14:20:10;15.67;;;14.10;;
5871;SDS011;2962;51.312;7.378;2024-03-06T14:22:37;19.83;;;16.77;;
5871;SDS011;2962;51.312;7.378;2024-03-06T14:25:02;18.70;;;16.80;;
5871;SDS011;2962;51.312;7.378;2024-03-06T14:27:28;23.23;;;18.53;;
5871;SDS011;2962;51.312;7.378;2024-03-06T14:29:53;17.97;;;14.40;;
5871;SDS011;2962;51.312;7.378;2024-03-06T14:32:19;20.63;;;16.33;;
5871;SDS011;2962;51.312;7.378;2024-03-06T14:34:44;19.67;;;15.83;;
5871;SDS011;2962;51.312;7.378;2024-03-06T14:37:10;21.03;;;16.93;;
5871;SDS011;2962;51.312;7.378;2024-03-06T14:39:35;22.30;;;17.30;;
5871;SDS011;2962;51.312;7.378;2024-03-06T14:42:01;21.93;;;17.37;;
5871;SDS011;2962;51.312;7.378;2024-03-06T14:44:26;19.03;;;16.17;;
5871;SDS011;2962;51.312;7.378;2024-03-06T14:46:51;21.83;;;17.40;;
5871;SDS011;2962;51.312;7.378;2024-03-06T14:49:17;19.33;;;16.50;;
5871;SDS011;2962;51.312;7.378;2024-03-06T14:51:42;19.53;;;16.60;;
5871;SDS011;2962;51.312;7.378;2024-03-06T14:54:08;23.47;;;17.93;;